North Bend, OR

6:54 AM PDT on September 30, 2014 (GMT -0700)
North Bend | Change Station
CLOSE
Current Station
Airport
Location: North Bend,
Elevation: 16 ft
Nearby Weather Stations

Elev 16 ft 43.42 °N, 124.25 °W | Updated 19 minutes ago

Fog
Fog
54 °F
Feels Like 54 °F
N
6
Wind Variable Wind from SSE

Today
High -- | Low -- °F
--% Chance of Precip.
Yesterday
High -- | Low -- °F
Precip. -- in
7:13 AM 6:59 PM
Waxing Crescent, 37% visible
Pressure 30.16 in
Visibility 1.2 miles
Clouds Overcast 200 ft
Dew Point 54 °F
Humidity 100%
Rainfall 0.18 in
Snow Depth 0 in , 0 in , 1 in
UV 0 out of 12
Pollen .70 out of 12
Air Quality Not available.
Flu Activity Not available.
METAR KOTH 301335Z 15005KT 1 1/4SM OVC002 12/12 A3016 RMK AO1 P0001

More Conditions Fewer Conditions

Pressure 30.16 in
Visibility 1.2 miles
Clouds Overcast 200 ft
Dew Point 54 °F
Humidity 100%
Rainfall 0.18 in
Snow Depth 0 in , 0 in , 1 in
UV 0 out of 12
Pollen .70 out of 12
Air Quality Not available.
Flu Activity Not available.
METAR KOTH 301335Z 15005KT 1 1/4SM OVC002 12/12 A3016 RMK AO1 P0001

More Conditions Fewer Conditions

10-Day Weather Forecast

Almanac

Astronomy

Sep. 30, 2014 Rise Set
Actual Time 7:13 AM PDT 6:59 PM PDT
Civil Twilight 6:44 AM PDT 7:28 PM PDT
Nautical Twilight 6:11 AM PDT 8:01 PM PDT
Astronomical Twilight 5:38 AM PDT 8:34 PM PDT
Moon 1:34 PM PDT 11:27 PM PDT
Length of Visible Light 12h 43m
Length of Day
11h 46m
Tomorrow will be 2m 57s shorter.
Waxing Crescent, 37% of the Moon is Illuminated
Today
Waxing Crescent
Oct 1
First Quarter
Oct 8
Full
Oct 15
Last Quarter
Oct 23
New

Today's Extremes

State Highs State Lows

Community

WunderPhotos

Upload Photos

1,757,636 photos uploaded!

Nearby

Snow Depth

Station Depth Elevation
Tipton 0 in 5150 ft
Sevenmile Marsh 0 in 6200 ft
Strawberry 1 in 5760 ft
Jump Off Joe 0 in 3500 ft
Cold Springs Camp 0 in 6100 ft

Earthquake Activity

City Distance Mag. Time & Date
No recent earthquake activity has been reported nearby.
Minimum magnitude displayed is 2.5.

Coastal Water Temperatures

Place Temperature
Port Orford, OR 57.0 °F
Charleston, OR 57.0 °F
South Beach, OR 60.1 °F

Nearby Weather Stations